sensor_id;sensor_type;location;lat;lon;timestamp;pressure;altitude;pressure_sealevel;temperature;humidity
4735;BME280;2381;50.676;12.612;2022-07-21T00:00:12;97486.78;;;26.61;54.63
4735;BME280;2381;50.676;12.612;2022-07-21T00:03:15;97487.03;;;26.65;57.18
4735;BME280;2381;50.676;12.612;2022-07-21T00:06:17;97497.31;;;26.58;60.38
4735;BME280;2381;50.676;12.612;2022-07-21T00:09:20;97497.09;;;26.49;62.41
4735;BME280;2381;50.676;12.612;2022-07-21T00:12:24;97504.16;;;26.35;67.54
4735;BME280;2381;50.676;12.612;2022-07-21T00:15:27;97502.91;;;26.18;73.06
4735;BME280;2381;50.676;12.612;2022-07-21T00:18:31;97504.03;;;26.12;75.40
4735;BME280;2381;50.676;12.612;2022-07-21T00:21:34;97504.88;;;26.07;75.07
4735;BME280;2381;50.676;12.612;2022-07-21T00:24:37;97502.75;;;25.84;77.44
4735;BME280;2381;50.676;12.612;2022-07-21T00:27:41;97506.03;;;25.86;77.84
4735;BME280;2381;50.676;12.612;2022-07-21T00:30:44;97511.41;;;25.81;78.17
4735;BME280;2381;50.676;12.612;2022-07-21T00:33:47;97512.22;;;25.77;79.38
4735;BME280;2381;50.676;12.612;2022-07-21T00:36:53;97510.09;;;25.64;79.64
4735;BME280;2381;50.676;12.612;2022-07-21T00:39:55;97522.00;;;25.53;81.21
4735;BME280;2381;50.676;12.612;2022-07-21T00:42:59;97519.28;;;25.58;81.36
4735;BME280;2381;50.676;12.612;2022-07-21T00:46:02;97527.09;;;25.44;82.63
4735;BME280;2381;50.676;12.612;2022-07-21T00:49:05;97539.28;;;25.32;83.33
4735;BME280;2381;50.676;12.612;2022-07-21T00:52:08;97534.16;;;25.30;83.48
4735;BME280;2381;50.676;12.612;2022-07-21T00:55:12;97535.75;;;25.21;84.36
4735;BME280;2381;50.676;12.612;2022-07-21T00:58:17;97530.38;;;25.21;83.99
4735;BME280;2381;50.676;12.612;2022-07-21T01:01:20;97535.72;;;25.11;85.96
4735;BME280;2381;50.676;12.612;2022-07-21T01:04:23;97536.00;;;25.05;86.46
4735;BME280;2381;50.676;12.612;2022-07-21T01:07:25;97542.72;;;25.02;86.83
4735;BME280;2381;50.676;12.612;2022-07-21T01:10:30;97538.44;;;25.06;85.76
4735;BME280;2381;50.676;12.612;2022-07-21T01:13:34;97550.53;;;24.84;87.49
4735;BME280;2381;50.676;12.612;2022-07-21T01:16:42;97546.50;;;24.86;87.61
4735;BME280;2381;50.676;12.612;2022-07-21T01:19:45;97541.66;;;24.88;87.84
4735;BME280;2381;50.676;12.612;2022-07-21T01:22:52;97545.94;;;24.79;89.97
4735;BME280;2381;50.676;12.612;2022-07-21T01:25:55;97542.69;;;24.57;90.31
4735;BME280;2381;50.676;12.612;2022-07-21T01:28:58;97548.00;;;24.52;91.39
4735;BME280;2381;50.676;12.612;2022-07-21T01:32:00;97552.28;;;24.38;91.53
4735;BME280;2381;50.676;12.612;2022-07-21T01:35:05;97551.75;;;24.41;92.59
4735;BME280;2381;50.676;12.612;2022-07-21T01:38:10;97557.13;;;24.41;93.64
4735;BME280;2381;50.676;12.612;2022-07-21T01:41:27;97563.03;;;24.33;95.59
4735;BME280;2381;50.676;12.612;2022-07-21T01:44:34;97556.25;;;24.21;97.10
4735;BME280;2381;50.676;12.612;2022-07-21T01:47:38;97560.31;;;24.28;96.00
4735;BME280;2381;50.676;12.612;2022-07-21T01:50:42;97556.38;;;23.90;100.00
4735;BME280;2381;50.676;12.612;2022-07-21T01:53:46;97554.13;;;23.77;100.00
4735;BME280;2381;50.676;12.612;2022-07-21T01:56:49;97561.81;;;23.63;100.00
4735;BME280;2381;50.676;12.612;2022-07-21T01:59:52;97557.34;;;23.79;100.00
4735;BME280;2381;50.676;12.612;2022-07-21T02:02:55;97558.13;;;23.33;100.00
4735;BME280;2381;50.676;12.612;2022-07-21T02:06:02;97562.69;;;23.32;100.00
4735;BME280;2381;50.676;12.612;2022-07-21T02:09:07;97557.59;;;23.36;100.00
4735;BME280;2381;50.676;12.612;2022-07-21T02:12:10;97547.22;;;23.49;100.00
4735;BME280;2381;50.676;12.612;2022-07-21T02:15:13;97554.97;;;23.41;100.00
4735;BME280;2381;50.676;12.612;2022-07-21T02:18:16;97546.59;;;23.37;100.00
4735;BME280;2381;50.676;12.612;2022-07-21T02:21:19;97559.47;;;23.09;100.00
4735;BME280;2381;50.676;12.612;2022-07-21T02:24:23;97563.38;;;23.18;100.00
4735;BME280;2381;50.676;12.612;2022-07-21T02:27:26;97566.81;;;22.87;100.00
4735;BME280;2381;50.676;12.612;2022-07-21T02:30:29;97562.25;;;22.87;100.00
4735;BME280;2381;50.676;12.612;2022-07-21T02:33:32;97567.78;;;22.76;100.00
4735;BME280;2381;50.676;12.612;2022-07-21T02:36:35;97577.19;;;22.52;100.00
4735;BME280;2381;50.676;12.612;2022-07-21T02:39:40;97570.25;;;22.34;100.00
4735;BME280;2381;50.676;12.612;2022-07-21T02:42:42;97579.63;;;22.32;100.00
4735;BME280;2381;50.676;12.612;2022-07-21T02:45:45;97587.66;;;22.32;100.00
4735;BME280;2381;50.676;12.612;2022-07-21T02:48:48;97580.34;;;22.06;100.00
4735;BME280;2381;50.676;12.612;2022-07-21T02:51:52;97584.16;;;22.31;100.00
4735;BME280;2381;50.676;12.612;2022-07-21T02:54:56;97572.28;;;22.06;100.00
4735;BME280;2381;50.676;12.612;2022-07-21T02:58:09;97569.19;;;21.92;100.00
4735;BME280;2381;50.676;12.612;2022-07-21T03:01:12;97580.56;;;21.83;100.00
4735;BME280;2381;50.676;12.612;2022-07-21T03:04:15;97581.53;;;21.93;100.00
4735;BME280;2381;50.676;12.612;2022-07-21T03:07:18;97585.66;;;22.01;100.00
4735;BME280;2381;50.676;12.612;2022-07-21T03:10:22;97584.38;;;21.87;100.00
4735;BME280;2381;50.676;12.612;2022-07-21T03:13:25;97589.41;;;22.00;100.00
4735;BME280;2381;50.676;12.612;2022-07-21T03:16:28;97593.72;;;22.01;100.00
4735;BME280;2381;50.676;12.612;2022-07-21T03:19:31;97591.53;;;21.81;100.00
4735;BME280;2381;50.676;12.612;2022-07-21T03:22:34;97578.75;;;21.67;100.00
4735;BME280;2381;50.676;12.612;2022-07-21T03:25:38;97579.22;;;21.31;100.00
4735;BME280;2381;50.676;12.612;2022-07-21T03:28:41;97574.84;;;21.41;100.00
4735;BME280;2381;50.676;12.612;2022-07-21T03:31:44;97576.03;;;21.50;100.00
4735;BME280;2381;50.676;12.612;2022-07-21T03:34:47;97565.72;;;21.59;100.00
4735;BME280;2381;50.676;12.612;2022-07-21T03:37:52;97565.22;;;21.62;100.00
4735;BME280;2381;50.676;12.612;2022-07-21T03:40:56;97576.97;;;21.72;100.00
4735;BME280;2381;50.676;12.612;2022-07-21T03:43:59;97581.66;;;21.49;100.00
4735;BME280;2381;50.676;12.612;2022-07-21T03:47:02;97567.94;;;21.29;100.00
4735;BME280;2381;50.676;12.612;2022-07-21T03:50:06;97557.41;;;21.06;100.00
4735;BME280;2381;50.676;12.612;2022-07-21T03:53:09;97562.47;;;20.91;100.00
4735;BME280;2381;50.676;12.612;2022-07-21T03:56:13;97564.44;;;21.12;100.00
4735;BME280;2381;50.676;12.612;2022-07-21T03:59:16;97577.03;;;21.28;100.00
4735;BME280;2381;50.676;12.612;2022-07-21T04:02:19;97580.06;;;21.31;100.00
4735;BME280;2381;50.676;12.612;2022-07-21T04:05:22;97577.28;;;21.26;100.00
4735;BME280;2381;50.676;12.612;2022-07-21T04:08:26;97578.72;;;21.34;100.00
4735;BME280;2381;50.676;12.612;2022-07-21T04:11:31;97582.06;;;21.41;100.00
4735;BME280;2381;50.676;12.612;2022-07-21T04:14:34;97587.50;;;21.46;100.00
4735;BME280;2381;50.676;12.612;2022-07-21T04:17:38;97597.25;;;21.52;100.00
4735;BME280;2381;50.676;12.612;2022-07-21T04:20:41;97597.91;;;21.59;100.00
4735;BME280;2381;50.676;12.612;2022-07-21T04:23:43;97583.63;;;21.70;100.00
4735;BME280;2381;50.676;12.612;2022-07-21T04:26:47;97590.59;;;21.71;100.00
4735;BME280;2381;50.676;12.612;2022-07-21T04:29:50;97605.41;;;21.73;100.00
4735;BME280;2381;50.676;12.612;2022-07-21T04:32:53;97593.19;;;21.66;100.00
4735;BME280;2381;50.676;12.612;2022-07-21T04:35:56;97567.19;;;21.50;100.00
4735;BME280;2381;50.676;12.612;2022-07-21T04:38:58;97538.81;;;21.54;100.00
4735;BME280;2381;50.676;12.612;2022-07-21T04:42:04;97533.72;;;21.69;100.00
4735;BME280;2381;50.676;12.612;2022-07-21T04:45:08;97533.88;;;21.79;100.00
4735;BME280;2381;50.676;12.612;2022-07-21T04:48:11;97545.78;;;21.88;100.00
4735;BME280;2381;50.676;12.612;2022-07-21T04:51:14;97553.16;;;21.97;100.00
4735;BME280;2381;50.676;12.612;2022-07-21T04:54:17;97567.53;;;22.08;100.00
4735;BME280;2381;50.676;12.612;2022-07-21T04:57:21;97584.22;;;22.15;100.00
4735;BME280;2381;50.676;12.612;2022-07-21T05:00:24;97592.34;;;22.20;100.00
4735;BME280;2381;50.676;12.612;2022-07-21T05:03:27;97590.53;;;22.25;100.00
4735;BME280;2381;50.676;12.612;2022-07-21T05:06:30;97593.78;;;22.27;100.00
4735;BME280;2381;50.676;12.612;2022-07-21T05:09:34;97601.50;;;22.24;100.00
4735;BME280;2381;50.676;12.612;2022-07-21T05:12:38;97626.09;;;22.16;100.00
4735;BME280;2381;50.676;12.612;2022-07-21T05:15:41;97621.78;;;22.15;100.00
4735;BME280;2381;50.676;12.612;2022-07-21T05:18:44;97631.59;;;22.26;100.00
4735;BME280;2381;50.676;12.612;2022-07-21T05:21:46;97640.22;;;22.28;100.00
4735;BME280;2381;50.676;12.612;2022-07-21T05:24:49;97635.16;;;22.10;100.00
4735;BME280;2381;50.676;12.612;2022-07-21T05:27:53;97639.13;;;22.07;100.00
4735;BME280;2381;50.676;12.612;2022-07-21T05:30:56;97638.81;;;22.04;100.00
4735;BME280;2381;50.676;12.612;2022-07-21T05:33:58;97635.25;;;21.98;100.00
4735;BME280;2381;50.676;12.612;2022-07-21T05:37:01;97647.28;;;21.96;100.00
4735;BME280;2381;50.676;12.612;2022-07-21T05:40:06;97650.22;;;21.94;100.00
4735;BME280;2381;50.676;12.612;2022-07-21T05:43:10;97647.22;;;21.91;100.00
4735;BME280;2381;50.676;12.612;2022-07-21T05:46:13;97641.91;;;21.96;100.00
4735;BME280;2381;50.676;12.612;2022-07-21T05:49:16;97657.75;;;22.14;100.00
4735;BME280;2381;50.676;12.612;2022-07-21T05:52:19;97661.38;;;22.24;100.00
4735;BME280;2381;50.676;12.612;2022-07-21T05:55:23;97658.72;;;22.46;100.00
4735;BME280;2381;50.676;12.612;2022-07-21T05:58:27;97655.34;;;22.77;100.00
4735;BME280;2381;50.676;12.612;2022-07-21T06:01:30;97655.66;;;23.02;100.00
4735;BME280;2381;50.676;12.612;2022-07-21T06:04:33;97656.97;;;23.26;100.00
4735;BME280;2381;50.676;12.612;2022-07-21T06:07:36;97665.16;;;23.36;100.00
4735;BME280;2381;50.676;12.612;2022-07-21T06:10:39;97676.50;;;23.43;100.00
4735;BME280;2381;50.676;12.612;2022-07-21T06:13:43;97688.69;;;23.50;100.00
4735;BME280;2381;50.676;12.612;2022-07-21T06:16:46;97683.84;;;23.52;100.00
4735;BME280;2381;50.676;12.612;2022-07-21T06:19:49;97690.63;;;23.60;100.00
4735;BME280;2381;50.676;12.612;2022-07-21T06:22:52;97689.09;;;23.69;100.00
4735;BME280;2381;50.676;12.612;2022-07-21T06:25:55;97705.59;;;23.77;100.00
4735;BME280;2381;50.676;12.612;2022-07-21T06:28:59;97708.28;;;23.77;100.00
4735;BME280;2381;50.676;12.612;2022-07-21T06:32:02;97716.16;;;23.84;100.00
4735;BME280;2381;50.676;12.612;2022-07-21T06:35:06;97726.09;;;23.83;100.00
4735;BME280;2381;50.676;12.612;2022-07-21T06:38:09;97721.03;;;23.87;100.00
4735;BME280;2381;50.676;12.612;2022-07-21T06:41:14;97738.00;;;23.87;100.00
4735;BME280;2381;50.676;12.612;2022-07-21T06:44:18;97728.88;;;23.88;100.00
4735;BME280;2381;50.676;12.612;2022-07-21T06:47:21;97735.31;;;23.87;100.00
4735;BME280;2381;50.676;12.612;2022-07-21T06:50:23;97734.50;;;23.92;100.00
4735;BME280;2381;50.676;12.612;2022-07-21T06:53:26;97727.94;;;24.09;100.00
4735;BME280;2381;50.676;12.612;2022-07-21T06:56:29;97735.72;;;24.06;96.63
4735;BME280;2381;50.676;12.612;2022-07-21T06:59:33;97738.19;;;24.12;95.98
4735;BME280;2381;50.676;12.612;2022-07-21T07:02:36;97735.09;;;24.30;95.72
4735;BME280;2381;50.676;12.612;2022-07-21T07:05:39;97729.94;;;24.60;93.37
4735;BME280;2381;50.676;12.612;2022-07-21T07:08:42;97728.94;;;24.81;92.00
4735;BME280;2381;50.676;12.612;2022-07-21T07:11:46;97729.00;;;24.91;88.01
4735;BME280;2381;50.676;12.612;2022-07-21T07:15:10;97733.63;;;25.05;87.20
4735;BME280;2381;50.676;12.612;2022-07-21T07:18:13;97723.94;;;25.14;84.68
4735;BME280;2381;50.676;12.612;2022-07-21T07:21:16;97728.78;;;25.12;85.15
4735;BME280;2381;50.676;12.612;2022-07-21T07:24:19;97726.09;;;25.12;83.84
4735;BME280;2381;50.676;12.612;2022-07-21T07:27:22;97721.03;;;25.21;84.55
4735;BME280;2381;50.676;12.612;2022-07-21T07:30:33;97728.38;;;25.40;82.69
4735;BME280;2381;50.676;12.612;2022-07-21T07:33:36;97725.97;;;25.69;85.80
4735;BME280;2381;50.676;12.612;2022-07-21T07:36:39;97726.81;;;25.79;84.89
4735;BME280;2381;50.676;12.612;2022-07-21T07:39:45;97736.75;;;25.59;82.64
4735;BME280;2381;50.676;12.612;2022-07-21T07:42:48;97730.03;;;25.71;82.28
4735;BME280;2381;50.676;12.612;2022-07-21T07:45:53;97735.41;;;25.51;82.40
4735;BME280;2381;50.676;12.612;2022-07-21T07:48:56;97737.03;;;25.47;82.60
4735;BME280;2381;50.676;12.612;2022-07-21T07:52:06;97741.59;;;25.42;83.33
4735;BME280;2381;50.676;12.612;2022-07-21T07:55:09;97746.13;;;25.21;87.21
4735;BME280;2381;50.676;12.612;2022-07-21T07:58:12;97735.56;;;25.20;87.18
4735;BME280;2381;50.676;12.612;2022-07-21T08:01:16;97743.06;;;25.03;88.81
4735;BME280;2381;50.676;12.612;2022-07-21T08:04:20;97743.84;;;24.98;88.45
4735;BME280;2381;50.676;12.612;2022-07-21T08:07:23;97740.06;;;24.94;89.70
4735;BME280;2381;50.676;12.612;2022-07-21T08:10:26;97736.25;;;24.85;90.09
4735;BME280;2381;50.676;12.612;2022-07-21T08:13:45;97755.13;;;24.85;91.15
4735;BME280;2381;50.676;12.612;2022-07-21T08:16:49;97765.81;;;24.70;91.26
4735;BME280;2381;50.676;12.612;2022-07-21T08:19:52;97776.94;;;24.47;91.50
4735;BME280;2381;50.676;12.612;2022-07-21T08:22:55;97782.09;;;24.49;92.35
4735;BME280;2381;50.676;12.612;2022-07-21T08:25:58;97799.44;;;24.31;96.04
4735;BME280;2381;50.676;12.612;2022-07-21T08:29:00;97807.50;;;24.26;100.00
4735;BME280;2381;50.676;12.612;2022-07-21T08:32:05;97801.94;;;24.07;100.00
4735;BME280;2381;50.676;12.612;2022-07-21T08:35:08;97797.50;;;23.91;100.00
4735;BME280;2381;50.676;12.612;2022-07-21T08:38:11;97803.25;;;23.78;100.00
4735;BME280;2381;50.676;12.612;2022-07-21T08:41:14;97804.66;;;23.59;100.00
4735;BME280;2381;50.676;12.612;2022-07-21T08:44:17;97816.06;;;23.44;100.00
4735;BME280;2381;50.676;12.612;2022-07-21T08:47:21;97806.59;;;23.37;100.00
4735;BME280;2381;50.676;12.612;2022-07-21T08:50:26;97804.06;;;23.09;100.00
4735;BME280;2381;50.676;12.612;2022-07-21T08:53:29;97809.59;;;22.43;100.00
4735;BME280;2381;50.676;12.612;2022-07-21T08:56:32;97804.28;;;22.48;100.00
4735;BME280;2381;50.676;12.612;2022-07-21T08:59:35;97807.28;;;22.35;100.00
4735;BME280;2381;50.676;12.612;2022-07-21T09:02:40;97791.34;;;22.12;100.00
4735;BME280;2381;50.676;12.612;2022-07-21T09:05:58;97774.41;;;21.78;100.00
4735;BME280;2381;50.676;12.612;2022-07-21T09:09:01;97744.91;;;21.50;100.00
4735;BME280;2381;50.676;12.612;2022-07-21T09:12:06;97743.97;;;21.56;100.00
4735;BME280;2381;50.676;12.612;2022-07-21T09:15:13;97736.47;;;21.42;100.00
4735;BME280;2381;50.676;12.612;2022-07-21T09:18:17;97748.44;;;21.51;100.00
4735;BME280;2381;50.676;12.612;2022-07-21T09:21:23;97765.00;;;21.48;100.00
4735;BME280;2381;50.676;12.612;2022-07-21T09:24:28;97773.47;;;21.28;100.00
4735;BME280;2381;50.676;12.612;2022-07-21T09:27:34;97770.16;;;21.10;100.00
4735;BME280;2381;50.676;12.612;2022-07-21T09:30:55;97762.66;;;21.23;100.00
4735;BME280;2381;50.676;12.612;2022-07-21T09:34:00;97760.31;;;21.27;100.00
4735;BME280;2381;50.676;12.612;2022-07-21T09:37:05;97759.63;;;21.20;100.00
4735;BME280;2381;50.676;12.612;2022-07-21T09:40:11;97762.13;;;21.38;100.00
4735;BME280;2381;50.676;12.612;2022-07-21T09:43:28;97753.66;;;21.29;100.00
4735;BME280;2381;50.676;12.612;2022-07-21T09:46:32;97750.16;;;21.29;100.00
4735;BME280;2381;50.676;12.612;2022-07-21T09:49:37;97738.25;;;21.36;100.00
4735;BME280;2381;50.676;12.612;2022-07-21T09:53:00;97730.44;;;21.35;100.00
4735;BME280;2381;50.676;12.612;2022-07-21T09:56:04;97733.03;;;21.30;100.00
4735;BME280;2381;50.676;12.612;2022-07-21T09:59:10;97743.25;;;21.33;100.00
4735;BME280;2381;50.676;12.612;2022-07-21T10:02:16;97746.31;;;21.25;100.00
4735;BME280;2381;50.676;12.612;2022-07-21T10:05:21;97745.94;;;21.33;100.00
4735;BME280;2381;50.676;12.612;2022-07-21T10:08:33;97750.59;;;21.37;100.00
4735;BME280;2381;50.676;12.612;2022-07-21T10:11:39;97752.31;;;21.43;100.00
4735;BME280;2381;50.676;12.612;2022-07-21T10:14:42;97757.22;;;21.35;100.00
4735;BME280;2381;50.676;12.612;2022-07-21T10:17:46;97765.66;;;21.55;100.00
4735;BME280;2381;50.676;12.612;2022-07-21T10:20:57;97759.03;;;21.46;100.00
4735;BME280;2381;50.676;12.612;2022-07-21T10:24:02;97772.50;;;21.34;100.00
4735;BME280;2381;50.676;12.612;2022-07-21T10:27:09;97772.19;;;21.31;100.00
4735;BME280;2381;50.676;12.612;2022-07-21T10:30:12;97766.72;;;21.26;100.00
4735;BME280;2381;50.676;12.612;2022-07-21T10:33:19;97752.41;;;21.20;100.00
4735;BME280;2381;50.676;12.612;2022-07-21T10:36:51;97748.69;;;21.22;100.00
4735;BME280;2381;50.676;12.612;2022-07-21T10:39:53;97750.53;;;21.21;100.00
4735;BME280;2381;50.676;12.612;2022-07-21T10:46:37;97757.28;;;20.96;100.00
4735;BME280;2381;50.676;12.612;2022-07-21T10:49:48;97777.88;;;20.95;100.00
4735;BME280;2381;50.676;12.612;2022-07-21T10:52:58;97780.66;;;21.00;100.00
4735;BME280;2381;50.676;12.612;2022-07-21T10:56:01;97777.41;;;20.98;100.00
4735;BME280;2381;50.676;12.612;2022-07-21T10:59:04;97772.97;;;21.04;100.00
4735;BME280;2381;50.676;12.612;2022-07-21T11:02:25;97760.59;;;21.14;100.00
4735;BME280;2381;50.676;12.612;2022-07-21T11:05:30;97774.16;;;20.96;100.00
4735;BME280;2381;50.676;12.612;2022-07-21T11:08:36;97779.25;;;21.09;100.00
4735;BME280;2381;50.676;12.612;2022-07-21T11:11:56;97788.88;;;21.22;100.00
4735;BME280;2381;50.676;12.612;2022-07-21T11:14:59;97787.19;;;21.32;100.00
4735;BME280;2381;50.676;12.612;2022-07-21T11:18:03;97773.31;;;21.35;100.00
4735;BME280;2381;50.676;12.612;2022-07-21T11:21:10;97765.09;;;21.25;100.00
4735;BME280;2381;50.676;12.612;2022-07-21T11:24:19;97764.69;;;21.33;100.00
4735;BME280;2381;50.676;12.612;2022-07-21T11:27:24;97765.88;;;21.37;100.00
4735;BME280;2381;50.676;12.612;2022-07-21T11:30:27;97763.28;;;21.42;100.00
4735;BME280;2381;50.676;12.612;2022-07-21T11:33:31;97758.97;;;21.41;100.00
4735;BME280;2381;50.676;12.612;2022-07-21T11:36:33;97743.94;;;21.40;100.00
4735;BME280;2381;50.676;12.612;2022-07-21T11:39:38;97733.22;;;21.40;100.00
4735;BME280;2381;50.676;12.612;2022-07-21T11:42:42;97732.16;;;21.41;100.00
4735;BME280;2381;50.676;12.612;2022-07-21T11:45:51;97728.34;;;21.37;100.00
4735;BME280;2381;50.676;12.612;2022-07-21T11:49:04;97738.59;;;21.40;100.00
4735;BME280;2381;50.676;12.612;2022-07-21T11:52:09;97730.44;;;21.35;100.00
4735;BME280;2381;50.676;12.612;2022-07-21T11:55:14;97720.94;;;21.44;100.00
4735;BME280;2381;50.676;12.612;2022-07-21T11:58:17;97723.47;;;21.50;100.00
4735;BME280;2381;50.676;12.612;2022-07-21T12:01:20;97724.97;;;21.58;100.00
4735;BME280;2381;50.676;12.612;2022-07-21T12:04:29;97727.16;;;21.61;100.00
4735;BME280;2381;50.676;12.612;2022-07-21T12:07:38;97720.88;;;21.67;100.00
4735;BME280;2381;50.676;12.612;2022-07-21T12:10:42;97724.00;;;21.64;100.00
4735;BME280;2381;50.676;12.612;2022-07-21T12:13:52;97724.13;;;21.69;100.00
4735;BME280;2381;50.676;12.612;2022-07-21T12:16:55;97719.66;;;21.74;100.00
4735;BME280;2381;50.676;12.612;2022-07-21T12:19:59;97728.66;;;21.85;100.00
4735;BME280;2381;50.676;12.612;2022-07-21T12:23:18;97710.53;;;21.92;100.00
4735;BME280;2381;50.676;12.612;2022-07-21T12:26:22;97708.91;;;21.91;100.00
4735;BME280;2381;50.676;12.612;2022-07-21T12:29:26;97703.06;;;21.94;100.00
4735;BME280;2381;50.676;12.612;2022-07-21T12:32:47;97712.00;;;21.99;100.00
4735;BME280;2381;50.676;12.612;2022-07-21T12:35:59;97713.75;;;22.27;100.00
4735;BME280;2381;50.676;12.612;2022-07-21T12:39:14;97707.44;;;22.38;100.00
4735;BME280;2381;50.676;12.612;2022-07-21T12:42:38;97712.19;;;22.69;100.00
4735;BME280;2381;50.676;12.612;2022-07-21T12:45:47;97704.97;;;22.91;100.00
4735;BME280;2381;50.676;12.612;2022-07-21T12:48:50;97702.06;;;23.19;100.00
4735;BME280;2381;50.676;12.612;2022-07-21T12:51:56;97693.34;;;23.33;100.00
4735;BME280;2381;50.676;12.612;2022-07-21T12:55:00;97691.81;;;23.42;100.00
4735;BME280;2381;50.676;12.612;2022-07-21T12:58:04;97698.22;;;23.63;100.00
4735;BME280;2381;50.676;12.612;2022-07-21T13:01:07;97675.59;;;23.95;100.00
4735;BME280;2381;50.676;12.612;2022-07-21T13:04:10;97687.13;;;23.86;100.00
4735;BME280;2381;50.676;12.612;2022-07-21T13:07:13;97685.06;;;23.98;100.00
4735;BME280;2381;50.676;12.612;2022-07-21T13:10:17;97683.91;;;23.89;100.00
4735;BME280;2381;50.676;12.612;2022-07-21T13:13:22;97688.81;;;23.97;100.00
4735;BME280;2381;50.676;12.612;2022-07-21T13:16:25;97686.50;;;23.79;100.00
4735;BME280;2381;50.676;12.612;2022-07-21T13:19:28;97693.72;;;23.73;100.00
4735;BME280;2381;50.676;12.612;2022-07-21T13:22:31;97698.50;;;23.98;100.00
4735;BME280;2381;50.676;12.612;2022-07-21T13:25:34;97679.69;;;23.98;100.00
4735;BME280;2381;50.676;12.612;2022-07-21T13:28:38;97675.31;;;23.92;100.00
4735;BME280;2381;50.676;12.612;2022-07-21T13:31:41;97681.88;;;24.06;100.00
4735;BME280;2381;50.676;12.612;2022-07-21T13:34:44;97677.16;;;24.22;100.00
4735;BME280;2381;50.676;12.612;2022-07-21T13:38:07;97679.19;;;24.52;100.00
4735;BME280;2381;50.676;12.612;2022-07-21T13:41:11;97674.22;;;24.80;100.00
4735;BME280;2381;50.676;12.612;2022-07-21T13:44:35;97660.28;;;24.98;100.00
4735;BME280;2381;50.676;12.612;2022-07-21T13:47:38;97660.28;;;25.03;100.00
4735;BME280;2381;50.676;12.612;2022-07-21T13:50:41;97666.50;;;25.14;100.00
4735;BME280;2381;50.676;12.612;2022-07-21T13:53:46;97676.22;;;25.15;100.00
4735;BME280;2381;50.676;12.612;2022-07-21T13:56:50;97659.56;;;25.28;100.00
4735;BME280;2381;50.676;12.612;2022-07-21T13:59:54;97659.84;;;25.51;100.00
4735;BME280;2381;50.676;12.612;2022-07-21T14:02:57;97648.53;;;25.39;100.00
4735;BME280;2381;50.676;12.612;2022-07-21T14:06:00;97653.13;;;25.64;100.00
4735;BME280;2381;50.676;12.612;2022-07-21T14:09:03;97643.69;;;25.66;100.00
4735;BME280;2381;50.676;12.612;2022-07-21T14:12:06;97647.44;;;25.70;100.00
4735;BME280;2381;50.676;12.612;2022-07-21T14:15:11;97645.28;;;25.82;100.00
4735;BME280;2381;50.676;12.612;2022-07-21T14:18:13;97645.81;;;25.79;94.16
4735;BME280;2381;50.676;12.612;2022-07-21T14:21:16;97646.09;;;25.78;96.30
4735;BME280;2381;50.676;12.612;2022-07-21T14:24:19;97647.16;;;25.77;97.82
4735;BME280;2381;50.676;12.612;2022-07-21T14:27:40;97648.53;;;25.99;99.09
4735;BME280;2381;50.676;12.612;2022-07-21T14:30:46;97644.72;;;26.15;100.00
4735;BME280;2381;50.676;12.612;2022-07-21T14:33:49;97649.03;;;26.06;95.72
4735;BME280;2381;50.676;12.612;2022-07-21T14:36:52;97641.22;;;26.00;100.00
4735;BME280;2381;50.676;12.612;2022-07-21T14:40:05;97641.53;;;25.88;100.00
4735;BME280;2381;50.676;12.612;2022-07-21T14:43:10;97638.25;;;25.71;95.80
4735;BME280;2381;50.676;12.612;2022-07-21T14:46:14;97642.06;;;25.55;98.32
4735;BME280;2381;50.676;12.612;2022-07-21T14:49:17;97633.94;;;25.75;100.00
4735;BME280;2381;50.676;12.612;2022-07-21T14:52:19;97628.25;;;26.12;100.00
4735;BME280;2381;50.676;12.612;2022-07-21T14:55:23;97638.50;;;26.15;89.04
4735;BME280;2381;50.676;12.612;2022-07-21T14:58:27;97637.13;;;26.37;91.47
4735;BME280;2381;50.676;12.612;2022-07-21T15:01:31;97632.19;;;26.44;90.21
4735;BME280;2381;50.676;12.612;2022-07-21T15:04:34;97622.50;;;26.38;91.14
4735;BME280;2381;50.676;12.612;2022-07-21T15:07:37;97627.97;;;26.18;89.11
4735;BME280;2381;50.676;12.612;2022-07-21T15:10:41;97628.00;;;25.93;88.46
4735;BME280;2381;50.676;12.612;2022-07-21T15:13:44;97626.41;;;25.87;90.26
4735;BME280;2381;50.676;12.612;2022-07-21T15:16:48;97625.84;;;25.80;89.46
4735;BME280;2381;50.676;12.612;2022-07-21T15:19:51;97619.38;;;25.81;93.06
4735;BME280;2381;50.676;12.612;2022-07-21T15:22:54;97626.63;;;25.81;94.06
4735;BME280;2381;50.676;12.612;2022-07-21T15:25:57;97623.44;;;25.74;93.77
4735;BME280;2381;50.676;12.612;2022-07-21T15:29:00;97614.78;;;25.77;96.22
4735;BME280;2381;50.676;12.612;2022-07-21T15:32:04;97616.41;;;25.88;95.84
4735;BME280;2381;50.676;12.612;2022-07-21T15:35:09;97624.25;;;25.89;94.82
4735;BME280;2381;50.676;12.612;2022-07-21T15:38:12;97615.06;;;25.90;86.22
4735;BME280;2381;50.676;12.612;2022-07-21T15:41:15;97612.91;;;25.92;87.36
4735;BME280;2381;50.676;12.612;2022-07-21T15:44:39;97611.28;;;25.91;89.51
4735;BME280;2381;50.676;12.612;2022-07-21T15:47:43;97608.59;;;25.86;94.31
4735;BME280;2381;50.676;12.612;2022-07-21T15:50:46;97609.13;;;25.88;91.26
4735;BME280;2381;50.676;12.612;2022-07-21T15:53:49;97602.09;;;26.07;91.00
4735;BME280;2381;50.676;12.612;2022-07-21T15:56:54;97602.56;;;26.29;93.64
4735;BME280;2381;50.676;12.612;2022-07-21T15:59:57;97603.06;;;26.26;88.59
4735;BME280;2381;50.676;12.612;2022-07-21T16:03:01;97602.28;;;26.26;78.34
4735;BME280;2381;50.676;12.612;2022-07-21T16:06:04;97605.28;;;26.14;77.85
4735;BME280;2381;50.676;12.612;2022-07-21T16:09:07;97603.66;;;26.18;71.35
4735;BME280;2381;50.676;12.612;2022-07-21T16:12:11;97606.31;;;26.38;68.83
4735;BME280;2381;50.676;12.612;2022-07-21T16:15:14;97601.91;;;26.57;69.51
4735;BME280;2381;50.676;12.612;2022-07-21T16:18:18;97601.94;;;26.52;66.72
4735;BME280;2381;50.676;12.612;2022-07-21T16:21:21;97599.72;;;26.64;65.61
4735;BME280;2381;50.676;12.612;2022-07-21T16:24:26;97590.00;;;26.68;68.13